createdAt,value
2018-05-01T00:00:30.212Z,0.37
2018-05-01T00:04:33.618Z,0.40
2018-05-01T00:08:37.025Z,0.27
2018-05-01T00:12:40.395Z,0.47
2018-05-01T00:16:43.043Z,0.20
2018-05-01T00:20:45.688Z,0.43
2018-05-01T00:24:48.328Z,0.20
2018-05-01T00:28:50.969Z,0.23
2018-05-01T00:32:53.577Z,0.20
2018-05-01T00:36:57.048Z,0.60
2018-05-01T00:40:59.794Z,0.20
2018-05-01T00:45:02.430Z,0.40
2018-05-01T00:49:05.072Z,0.40
2018-05-01T00:53:07.708Z,0.20
2018-05-01T00:57:10.409Z,0.37
2018-05-01T01:01:13.053Z,0.30
2018-05-01T01:05:15.696Z,0.33
2018-05-01T01:09:19.065Z,0.30
2018-05-01T01:13:21.754Z,0.20
2018-05-01T01:17:24.406Z,0.40
2018-05-01T01:21:27.059Z,0.40
2018-05-01T01:25:29.703Z,0.30
2018-05-01T01:29:32.369Z,0.43
2018-05-01T01:33:35.001Z,0.10
2018-05-01T01:37:37.147Z,0.20
2018-05-01T01:41:39.287Z,0.40
2018-05-01T01:45:42.196Z,0.30
2018-05-01T01:49:45.081Z,0.20
2018-05-01T01:53:47.988Z,0.17
2018-05-01T01:57:50.898Z,0.30
2018-05-01T02:01:53.041Z,0.20
2018-05-01T02:05:55.971Z,0.20
2018-05-01T02:09:58.079Z,0.80
2018-05-01T02:14:00.221Z,0.20
2018-05-01T02:18:02.364Z,0.27
2018-05-01T02:22:05.281Z,0.30
2018-05-01T02:26:07.425Z,0.10
2018-05-01T02:30:09.534Z,0.27
2018-05-01T02:34:11.672Z,0.10
2018-05-01T02:38:13.893Z,0.20
2018-05-01T02:42:15.991Z,0.20
2018-05-01T02:46:18.137Z,0.30
2018-05-01T02:50:20.244Z,0.13
2018-05-01T02:54:22.393Z,0.17
2018-05-01T02:58:24.528Z,0.17
2018-05-01T03:02:26.673Z,0.10
2018-05-01T03:06:28.812Z,0.30
2018-05-01T03:10:31.675Z,0.20
2018-05-01T03:14:33.817Z,0.40
2018-05-01T03:18:35.951Z,0.00
2018-05-01T03:22:38.892Z,0.17
2018-05-01T03:26:41.044Z,0.23
2018-05-01T03:30:43.161Z,0.10
2018-05-01T03:34:45.303Z,0.10
2018-05-01T03:38:47.445Z,0.17
2018-05-01T03:42:50.343Z,0.20
2018-05-01T03:46:53.259Z,0.20
2018-05-01T03:50:55.425Z,0.07
2018-05-01T03:54:57.612Z,0.10
2018-05-01T03:58:59.770Z,0.17
2018-05-01T04:03:02.695Z,0.10
2018-05-01T04:07:04.856Z,0.10
2018-05-01T04:11:06.987Z,0.10
2018-05-01T04:15:09.148Z,0.20
2018-05-01T04:19:11.297Z,0.10
2018-05-01T04:23:13.441Z,0.10
2018-05-01T04:27:16.347Z,0.30
2018-05-01T04:31:18.496Z,0.20
2018-05-01T04:35:20.640Z,0.20
2018-05-01T04:39:22.790Z,0.20
2018-05-01T04:43:24.936Z,0.13
2018-05-01T04:47:27.117Z,0.47
2018-05-01T04:51:29.265Z,0.10
2018-05-01T04:55:31.403Z,0.27
2018-05-01T04:59:33.535Z,0.20
2018-05-01T05:03:35.680Z,0.20
2018-05-01T05:07:37.860Z,0.30
2018-05-01T05:11:39.963Z,0.20
2018-05-01T05:15:42.113Z,0.20
2018-05-01T05:19:44.252Z,0.23
2018-05-01T05:23:46.404Z,0.23
2018-05-01T05:27:48.545Z,0.37
2018-05-01T05:31:50.680Z,0.30
2018-05-01T05:35:53.581Z,0.37
2018-05-01T05:39:55.734Z,0.30
2018-05-01T05:43:58.639Z,0.37
2018-05-01T05:48:01.656Z,0.43
2018-05-01T05:52:03.782Z,0.50
2018-05-01T05:56:05.950Z,0.57
2018-05-01T06:00:08.107Z,0.60
2018-05-01T06:04:10.268Z,0.70
2018-05-01T06:08:12.431Z,0.80
2018-05-01T06:12:14.559Z,0.80
2018-05-01T06:16:16.716Z,0.80
2018-05-01T06:20:18.871Z,1.10
2018-05-01T06:24:21.872Z,0.90
2018-05-01T06:28:24.016Z,1.03
2018-05-01T06:32:26.884Z,1.40
2018-05-01T06:36:29.015Z,1.23
2018-05-01T06:40:31.148Z,1.37
2018-05-01T06:44:33.293Z,1.40
2018-05-01T06:48:35.438Z,1.40
2018-05-01T06:52:37.545Z,1.60
2018-05-01T06:56:39.691Z,1.70
2018-05-01T07:00:41.824Z,1.80
2018-05-01T07:04:43.974Z,2.00
2018-05-01T07:08:46.118Z,2.00
2018-05-01T07:12:48.227Z,2.50
2018-05-01T07:16:50.368Z,2.87
2018-05-01T07:20:52.496Z,2.60
2018-05-01T07:24:54.631Z,2.50
2018-05-01T07:28:56.771Z,2.93
2018-05-01T07:32:58.872Z,2.80
2018-05-01T07:37:01.012Z,3.30
2018-05-01T07:41:03.157Z,3.43
2018-05-01T07:45:05.301Z,3.70
2018-05-01T07:49:07.448Z,4.03
2018-05-01T07:53:09.566Z,4.47
2018-05-01T07:57:11.709Z,3.80
2018-05-01T08:01:14.625Z,4.30
2018-05-01T08:05:16.759Z,4.33
2018-05-01T08:09:18.907Z,4.07
2018-05-01T08:13:21.004Z,4.17
2018-05-01T08:17:23.157Z,3.97
2018-05-01T08:21:25.307Z,5.30
2018-05-01T08:25:27.460Z,5.77
2018-05-01T08:29:30.379Z,5.10
2018-05-01T08:33:32.515Z,4.43
2018-05-01T08:37:35.566Z,5.80
2018-05-01T08:41:37.658Z,5.20
2018-05-01T08:45:39.809Z,4.30
2018-05-01T08:49:41.951Z,4.90
2018-05-01T08:53:44.071Z,5.23
2018-05-01T08:57:46.207Z,5.40
2018-05-01T09:01:48.376Z,5.10
2018-05-01T09:05:50.527Z,5.97
2018-05-01T09:09:52.635Z,5.63
2018-05-01T09:13:54.787Z,5.63
2018-05-01T09:17:56.967Z,6.13
2018-05-01T09:21:59.116Z,5.93
2018-05-01T09:26:01.268Z,6.33
2018-05-01T09:30:03.383Z,5.43
2018-05-01T09:34:05.529Z,5.53
2018-05-01T09:38:07.710Z,5.57
2018-05-01T09:42:09.852Z,6.90
2018-05-01T09:46:12.761Z,5.43
2018-05-01T09:50:15.644Z,5.73
2018-05-01T09:54:19.102Z,4.50
2018-05-01T09:58:21.738Z,4.80
2018-05-01T10:02:25.150Z,4.93
2018-05-01T10:06:28.552Z,4.90
2018-05-01T10:10:31.918Z,4.30
2018-05-01T10:14:34.560Z,3.50
2018-05-01T10:18:37.966Z,4.10
2018-05-01T10:22:40.687Z,3.60
2018-05-01T10:26:43.339Z,3.37
2018-05-01T10:30:46.792Z,3.90
2018-05-01T10:34:49.433Z,3.17
2018-05-01T10:38:52.857Z,3.20
2018-05-01T10:42:55.512Z,3.37
2018-05-01T10:46:58.204Z,2.57
2018-05-01T10:51:00.867Z,2.67
2018-05-01T10:55:03.524Z,2.33
2018-05-01T10:59:06.932Z,2.30
2018-05-01T11:03:09.631Z,2.27
2018-05-01T11:07:13.380Z,2.70
2018-05-01T11:11:16.530Z,2.03
2018-05-01T11:15:19.617Z,2.40
2018-05-01T11:19:22.247Z,2.87
2018-05-01T11:23:24.926Z,3.17
2018-05-01T11:27:27.650Z,2.50
2018-05-01T11:31:30.303Z,2.93
2018-05-01T11:35:33.683Z,3.07
2018-05-01T11:39:36.324Z,2.63
2018-05-01T11:43:38.960Z,3.30
2018-05-01T11:47:41.599Z,3.87
2018-05-01T11:51:44.257Z,3.60
2018-05-01T11:55:46.869Z,3.40
2018-05-01T11:59:49.574Z,3.10
2018-05-01T12:03:52.219Z,2.80
2018-05-01T12:07:54.853Z,2.63
2018-05-01T12:11:57.522Z,2.37
2018-05-01T12:16:00.152Z,1.83
2018-05-01T12:24:13.203Z,2.70
2018-05-01T12:28:16.605Z,2.90
2018-05-01T12:32:20.012Z,2.00
2018-05-01T12:36:23.436Z,2.80
2018-05-01T12:40:26.036Z,3.07
2018-05-01T12:44:28.673Z,2.40
2018-05-01T12:48:31.415Z,3.07
2018-05-01T12:52:34.798Z,2.57
2018-05-01T12:56:38.233Z,2.77
2018-05-01T13:00:40.858Z,2.10
2018-05-01T13:04:43.549Z,2.60
2018-05-01T13:08:46.196Z,2.67
2018-05-01T13:12:49.441Z,2.40
2018-05-01T13:16:52.953Z,2.53
2018-05-01T13:20:55.596Z,2.80
2018-05-01T13:24:58.325Z,3.70
2018-05-01T13:29:00.977Z,3.10
2018-05-01T13:33:03.638Z,2.50
2018-05-01T13:37:07.013Z,2.53
2018-05-01T13:41:09.656Z,3.07
2018-05-01T13:45:12.364Z,3.07
2018-05-01T13:49:15.737Z,2.80
2018-05-01T13:53:18.376Z,3.13
2018-05-01T13:57:21.006Z,3.10
2018-05-01T14:01:23.651Z,3.03
2018-05-01T14:05:26.297Z,3.10
2018-05-01T14:09:29.004Z,2.80
2018-05-01T14:13:31.643Z,2.77
2018-05-01T14:17:35.020Z,3.30
2018-05-01T14:21:37.653Z,2.33
2018-05-01T14:25:41.151Z,3.00
2018-05-01T14:29:43.720Z,3.07
2018-05-01T14:33:46.368Z,2.97
2018-05-01T14:37:48.967Z,2.80
2018-05-01T14:41:51.608Z,3.17
2018-05-01T14:45:55.147Z,3.43
2018-05-01T14:49:57.811Z,3.03
2018-05-01T14:54:00.455Z,2.40
2018-05-01T14:58:03.056Z,2.80
2018-05-01T15:02:17.344Z,1.90
2018-05-01T15:06:20.745Z,2.77
2018-05-01T15:10:24.793Z,2.33
2018-05-01T15:14:27.432Z,3.47
2018-05-01T15:18:30.039Z,2.90
2018-05-01T15:22:33.444Z,2.67
2018-05-01T15:26:36.838Z,2.87
2018-05-01T15:30:39.473Z,4.10
2018-05-01T15:34:42.103Z,2.23
2018-05-01T15:38:44.696Z,2.43
2018-05-01T15:42:47.332Z,2.70
2018-05-01T15:46:50.118Z,2.83
2018-05-01T15:50:52.757Z,2.70
2018-05-01T15:54:55.396Z,2.47
2018-05-01T15:58:58.005Z,2.83
2018-05-01T16:03:00.647Z,1.90
2018-05-01T16:07:04.053Z,2.20
2018-05-01T16:11:07.448Z,3.30
2018-05-01T16:15:10.084Z,2.90
2018-05-01T16:19:12.688Z,2.20
2018-05-01T16:23:15.351Z,2.03
2018-05-01T16:27:17.978Z,2.37
2018-05-01T16:31:20.611Z,2.73
2018-05-01T16:35:24.066Z,2.20
2018-05-01T16:39:26.668Z,2.27
2018-05-01T16:43:29.312Z,2.40
2018-05-01T16:47:31.948Z,2.00
2018-05-01T16:51:34.591Z,2.00
2018-05-01T16:55:37.259Z,1.40
2018-05-01T16:59:40.678Z,1.30
2018-05-01T17:03:43.319Z,1.60
2018-05-01T17:07:45.956Z,1.90
2018-05-01T17:11:48.604Z,1.33
2018-05-01T17:15:51.234Z,1.60
2018-05-01T17:19:53.847Z,1.80
2018-05-01T17:23:56.484Z,1.50
2018-05-01T17:27:59.895Z,1.47
2018-05-01T17:32:03.304Z,1.80
2018-05-01T17:53:59.351Z,1.90
2018-05-01T17:58:02.079Z,1.93
2018-05-01T18:02:04.760Z,1.97
2018-05-01T18:06:07.395Z,1.87
2018-05-01T18:10:10.004Z,1.97
2018-05-01T18:14:13.404Z,1.73
2018-05-01T18:18:16.801Z,1.93
2018-05-01T18:22:19.437Z,1.57
2018-05-01T18:26:22.074Z,1.63
2018-05-01T18:30:24.676Z,1.43
2018-05-01T18:34:28.128Z,1.53
2018-05-01T18:38:30.761Z,1.37
2018-05-01T18:42:33.392Z,1.30
2018-05-01T18:46:36.856Z,1.43
2018-05-01T18:50:40.524Z,1.60
2018-05-01T18:54:42.121Z,1.27
2018-05-01T18:58:44.761Z,1.33
2018-05-01T19:02:47.395Z,1.50
2018-05-01T19:06:50.036Z,1.40
2018-05-01T19:10:52.668Z,1.53
2018-05-01T19:14:55.314Z,1.20
2018-05-01T19:18:57.946Z,1.40
2018-05-01T19:23:00.617Z,1.20
2018-05-01T19:27:03.252Z,1.73
2018-05-01T19:31:06.619Z,1.50
2018-05-01T19:35:09.268Z,1.50
2018-05-01T19:39:11.940Z,1.70
2018-05-01T19:43:15.339Z,1.30
2018-05-01T19:47:18.748Z,1.40
2018-05-01T19:51:22.120Z,1.40
2018-05-01T19:55:24.756Z,1.03
2018-05-01T19:59:27.397Z,1.20
2018-05-01T20:03:30.023Z,1.40
2018-05-01T20:07:33.471Z,1.13
2018-05-01T20:11:36.103Z,1.70
2018-05-01T20:15:38.732Z,1.40
2018-05-01T20:19:41.422Z,1.40
2018-05-01T20:23:44.125Z,1.40
2018-05-01T20:27:46.769Z,1.30
2018-05-01T20:31:50.122Z,1.60
2018-05-01T20:35:52.751Z,2.07
2018-05-01T20:39:55.420Z,1.80
2018-05-01T20:43:58.056Z,1.90
2018-05-01T20:48:00.701Z,3.07
2018-05-01T20:52:03.305Z,2.77
2018-05-01T20:56:05.973Z,2.57
2018-05-01T21:00:08.613Z,3.53
2018-05-01T21:04:11.240Z,2.87
2018-05-01T21:08:13.839Z,2.63
2018-05-01T21:12:16.476Z,2.60
2018-05-01T21:16:19.115Z,2.17
2018-05-01T21:20:22.553Z,3.07
2018-05-01T21:24:25.185Z,2.60
2018-05-01T21:28:27.794Z,2.80
2018-05-01T21:32:30.471Z,2.07
2018-05-01T21:36:33.115Z,2.23
2018-05-01T21:40:35.741Z,2.47
2018-05-01T21:44:38.340Z,2.03
2018-05-01T21:48:40.979Z,2.13
2018-05-01T21:52:43.640Z,2.10
2018-05-01T21:56:47.095Z,2.37
2018-05-01T22:00:49.726Z,2.10
2018-05-01T22:04:52.333Z,2.63
2018-05-01T22:08:55.730Z,2.77
2018-05-01T22:12:59.123Z,2.93
2018-05-01T22:17:01.764Z,3.03
2018-05-01T22:21:04.416Z,3.30
2018-05-01T22:25:07.878Z,2.60
2018-05-01T22:29:10.564Z,2.73
2018-05-01T22:33:13.197Z,2.40
2018-05-01T22:37:16.611Z,2.00
2018-05-01T22:41:20.052Z,2.77
2018-05-01T22:45:22.692Z,2.70
2018-05-01T22:49:25.320Z,3.10
2018-05-01T22:53:27.969Z,2.40
2018-05-01T22:57:30.615Z,3.07
2018-05-01T23:01:33.211Z,2.10
2018-05-01T23:05:35.844Z,2.70
2018-05-01T23:09:38.503Z,2.33
2018-05-01T23:13:41.192Z,2.77
2018-05-01T23:17:43.876Z,2.60
2018-05-01T23:21:46.477Z,2.60
2018-05-01T23:25:49.165Z,2.77
2018-05-01T23:29:52.130Z,2.93
2018-05-01T23:33:54.760Z,2.37
2018-05-01T23:37:57.450Z,3.50
2018-05-01T23:42:00.043Z,2.77
2018-05-01T23:46:03.436Z,2.53
2018-05-01T23:50:06.074Z,2.80
2018-05-01T23:54:08.766Z,3.27
2018-05-01T23:58:11.428Z,3.07
